Current Weather

Eureka

Eureka, Canada (CWEU)

Report from: Sunday, May 22, 2022 3:00 AM CDT
Current time: Sunday, May 22, 2022 3:42 AM CDT

Nearby weather
Weather history
Weather forecast

Temperature-13.0°C (8.6°F)
Wind chill-22.4°C (-8.4°F)
Dew point-18.0°C (-0.4°F)
Winds 13 kts (6.7 m/s, 15 mph) North (350°)
Visibility15 mi. (24.1 km)
Clouds Few clouds 6,000 ft. (1,829 m)
Scattered clouds 15,000 ft. (4,572 m)
Ceiling: Broken clouds 21,000 ft. (6,401 m)
Altimeter29.86 in.Hg (1011 mB)
Relative humidity66 %
Density altitude-3,426 ft. (-1,044 m)
Sea-level pressure101.2 kPa (1012 mB, 29.90 in.Hg)
Flight conditions Visual Meteorological Conditions
Raw dataCWEU 220800Z 35013KT 15SM FEW060 SCT150 BKN210 M13/M18 A2986 RMK SC2AC2CS3 HALO SLP124
An error has occurred. This application may no longer respond until reloaded. Reload 🗙